sensor_id;sensor_type;location;lat;lon;timestamp;P1;durP1;ratioP1;P2;durP2;ratioP2
13743;SDS011;6943;52.368;9.966;2023-08-06T00:02:17;5.87;;;4.57;;
13743;SDS011;6943;52.368;9.966;2023-08-06T00:04:42;7.20;;;5.60;;
13743;SDS011;6943;52.368;9.966;2023-08-06T00:07:08;5.97;;;5.37;;
13743;SDS011;6943;52.368;9.966;2023-08-06T00:09:34;6.97;;;5.97;;
13743;SDS011;6943;52.368;9.966;2023-08-06T00:11:59;7.70;;;5.93;;
13743;SDS011;6943;52.368;9.966;2023-08-06T00:14:25;8.23;;;6.43;;
13743;SDS011;6943;52.368;9.966;2023-08-06T00:16:50;7.07;;;6.37;;
13743;SDS011;6943;52.368;9.966;2023-08-06T00:19:15;7.20;;;6.57;;
13743;SDS011;6943;52.368;9.966;2023-08-06T00:21:41;6.17;;;5.57;;
13743;SDS011;6943;52.368;9.966;2023-08-06T00:24:06;7.00;;;6.00;;
13743;SDS011;6943;52.368;9.966;2023-08-06T00:26:32;7.03;;;6.33;;
13743;SDS011;6943;52.368;9.966;2023-08-06T00:28:58;6.10;;;5.50;;
13743;SDS011;6943;52.368;9.966;2023-08-06T00:31:23;7.47;;;6.20;;
13743;SDS011;6943;52.368;9.966;2023-08-06T00:33:49;9.10;;;5.63;;
13743;SDS011;6943;52.368;9.966;2023-08-06T00:36:14;8.33;;;6.20;;
13743;SDS011;6943;52.368;9.966;2023-08-06T00:38:40;8.73;;;6.33;;
13743;SDS011;6943;52.368;9.966;2023-08-06T00:41:05;6.23;;;5.63;;
13743;SDS011;6943;52.368;9.966;2023-08-06T00:43:31;6.90;;;6.10;;
13743;SDS011;6943;52.368;9.966;2023-08-06T00:45:56;7.07;;;5.63;;
13743;SDS011;6943;52.368;9.966;2023-08-06T00:48:22;6.90;;;5.43;;
13743;SDS011;6943;52.368;9.966;2023-08-06T00:50:47;6.90;;;5.53;;
13743;SDS011;6943;52.368;9.966;2023-08-06T00:53:13;6.13;;;5.63;;
13743;SDS011;6943;52.368;9.966;2023-08-06T00:55:39;6.20;;;5.60;;
13743;SDS011;6943;52.368;9.966;2023-08-06T00:58:05;6.17;;;5.37;;
13743;SDS011;6943;52.368;9.966;2023-08-06T01:00:30;6.03;;;5.43;;
13743;SDS011;6943;52.368;9.966;2023-08-06T01:02:56;7.00;;;6.07;;
13743;SDS011;6943;52.368;9.966;2023-08-06T01:05:22;8.87;;;6.40;;
13743;SDS011;6943;52.368;9.966;2023-08-06T01:08:07;7.83;;;7.07;;
13743;SDS011;6943;52.368;9.966;2023-08-06T01:13:47;8.33;;;7.53;;
13743;SDS011;6943;52.368;9.966;2023-08-06T01:16:17;7.70;;;6.80;;
13743;SDS011;6943;52.368;9.966;2023-08-06T01:18:43;9.93;;;7.60;;
13743;SDS011;6943;52.368;9.966;2023-08-06T01:21:14;8.00;;;7.20;;
13743;SDS011;6943;52.368;9.966;2023-08-06T01:23:43;10.60;;;7.90;;
13743;SDS011;6943;52.368;9.966;2023-08-06T01:26:24;10.20;;;8.53;;
13743;SDS011;6943;52.368;9.966;2023-08-06T01:31:43;10.27;;;8.40;;
13743;SDS011;6943;52.368;9.966;2023-08-06T01:34:13;8.87;;;7.93;;
13743;SDS011;6943;52.368;9.966;2023-08-06T01:36:44;11.77;;;9.13;;
13743;SDS011;6943;52.368;9.966;2023-08-06T01:39:10;10.47;;;9.17;;
13743;SDS011;6943;52.368;9.966;2023-08-06T01:41:36;13.17;;;9.60;;
13743;SDS011;6943;52.368;9.966;2023-08-06T01:44:02;11.83;;;9.43;;
13743;SDS011;6943;52.368;9.966;2023-08-06T01:46:27;11.73;;;10.13;;
13743;SDS011;6943;52.368;9.966;2023-08-06T01:48:53;10.30;;;9.10;;
13743;SDS011;6943;52.368;9.966;2023-08-06T01:51:18;11.67;;;9.37;;
13743;SDS011;6943;52.368;9.966;2023-08-06T01:53:44;11.83;;;9.70;;
13743;SDS011;6943;52.368;9.966;2023-08-06T01:56:09;11.93;;;8.60;;
13743;SDS011;6943;52.368;9.966;2023-08-06T01:58:34;11.77;;;9.63;;
13743;SDS011;6943;52.368;9.966;2023-08-06T02:01:01;10.60;;;8.57;;
13743;SDS011;6943;52.368;9.966;2023-08-06T02:03:26;9.07;;;8.17;;
13743;SDS011;6943;52.368;9.966;2023-08-06T02:05:52;10.43;;;9.33;;
13743;SDS011;6943;52.368;9.966;2023-08-06T02:08:18;10.70;;;8.80;;
13743;SDS011;6943;52.368;9.966;2023-08-06T02:10:44;9.30;;;8.40;;
13743;SDS011;6943;52.368;9.966;2023-08-06T02:13:10;12.93;;;8.93;;
13743;SDS011;6943;52.368;9.966;2023-08-06T02:15:35;13.53;;;9.47;;
13743;SDS011;6943;52.368;9.966;2023-08-06T02:18:01;11.50;;;9.33;;
13743;SDS011;6943;52.368;9.966;2023-08-06T02:20:27;14.97;;;9.50;;
13743;SDS011;6943;52.368;9.966;2023-08-06T02:22:53;16.30;;;9.87;;
13743;SDS011;6943;52.368;9.966;2023-08-06T02:25:18;12.20;;;9.23;;
13743;SDS011;6943;52.368;9.966;2023-08-06T02:27:44;13.33;;;10.33;;
13743;SDS011;6943;52.368;9.966;2023-08-06T02:30:09;12.13;;;9.50;;
13743;SDS011;6943;52.368;9.966;2023-08-06T02:32:35;10.27;;;9.20;;
13743;SDS011;6943;52.368;9.966;2023-08-06T02:35:01;12.30;;;10.43;;
13743;SDS011;6943;52.368;9.966;2023-08-06T02:37:27;11.20;;;8.93;;
13743;SDS011;6943;52.368;9.966;2023-08-06T02:39:53;12.17;;;8.97;;
13743;SDS011;6943;52.368;9.966;2023-08-06T02:42:18;11.97;;;9.07;;
13743;SDS011;6943;52.368;9.966;2023-08-06T02:44:43;10.27;;;9.00;;
13743;SDS011;6943;52.368;9.966;2023-08-06T02:47:09;10.97;;;8.93;;
13743;SDS011;6943;52.368;9.966;2023-08-06T02:49:34;13.20;;;9.27;;
13743;SDS011;6943;52.368;9.966;2023-08-06T02:52:00;10.73;;;9.07;;
13743;SDS011;6943;52.368;9.966;2023-08-06T02:54:25;12.47;;;9.33;;
13743;SDS011;6943;52.368;9.966;2023-08-06T02:56:51;9.50;;;8.47;;
13743;SDS011;6943;52.368;9.966;2023-08-06T02:59:16;9.80;;;8.80;;
13743;SDS011;6943;52.368;9.966;2023-08-06T03:01:42;9.87;;;8.83;;
13743;SDS011;6943;52.368;9.966;2023-08-06T03:04:07;8.90;;;8.10;;
13743;SDS011;6943;52.368;9.966;2023-08-06T03:06:33;9.97;;;8.50;;
13743;SDS011;6943;52.368;9.966;2023-08-06T03:08:58;9.13;;;8.23;;
13743;SDS011;6943;52.368;9.966;2023-08-06T03:11:24;9.70;;;8.20;;
13743;SDS011;6943;52.368;9.966;2023-08-06T03:13:49;9.37;;;8.20;;
13743;SDS011;6943;52.368;9.966;2023-08-06T03:16:15;12.63;;;8.60;;
13743;SDS011;6943;52.368;9.966;2023-08-06T03:18:40;10.20;;;8.73;;
13743;SDS011;6943;52.368;9.966;2023-08-06T03:21:06;13.07;;;8.70;;
13743;SDS011;6943;52.368;9.966;2023-08-06T03:23:31;10.50;;;8.30;;
13743;SDS011;6943;52.368;9.966;2023-08-06T03:26:03;9.37;;;8.37;;
13743;SDS011;6943;52.368;9.966;2023-08-06T03:28:29;8.90;;;8.00;;
13743;SDS011;6943;52.368;9.966;2023-08-06T03:31:01;10.00;;;8.93;;
13743;SDS011;6943;52.368;9.966;2023-08-06T03:33:27;11.53;;;8.77;;
13743;SDS011;6943;52.368;9.966;2023-08-06T03:35:53;8.40;;;7.57;;
13743;SDS011;6943;52.368;9.966;2023-08-06T03:38:19;11.07;;;8.60;;
13743;SDS011;6943;52.368;9.966;2023-08-06T03:40:45;12.33;;;9.13;;
13743;SDS011;6943;52.368;9.966;2023-08-06T03:43:11;9.10;;;8.17;;
13743;SDS011;6943;52.368;9.966;2023-08-06T03:45:37;9.30;;;8.33;;
13743;SDS011;6943;52.368;9.966;2023-08-06T03:48:02;11.43;;;8.87;;
13743;SDS011;6943;52.368;9.966;2023-08-06T03:50:28;11.00;;;8.87;;
13743;SDS011;6943;52.368;9.966;2023-08-06T03:52:54;10.93;;;9.13;;
13743;SDS011;6943;52.368;9.966;2023-08-06T03:55:19;10.57;;;9.30;;
13743;SDS011;6943;52.368;9.966;2023-08-06T03:57:45;11.27;;;10.23;;
13743;SDS011;6943;52.368;9.966;2023-08-06T04:00:10;12.07;;;9.20;;
13743;SDS011;6943;52.368;9.966;2023-08-06T04:02:37;13.60;;;10.83;;
13743;SDS011;6943;52.368;9.966;2023-08-06T04:05:03;16.70;;;12.13;;
13743;SDS011;6943;52.368;9.966;2023-08-06T04:07:28;26.63;;;12.73;;
13743;SDS011;6943;52.368;9.966;2023-08-06T04:09:54;19.30;;;12.27;;
13743;SDS011;6943;52.368;9.966;2023-08-06T04:12:23;37.33;;;12.50;;
13743;SDS011;6943;52.368;9.966;2023-08-06T04:14:50;31.07;;;12.10;;
13743;SDS011;6943;52.368;9.966;2023-08-06T04:17:16;16.90;;;12.17;;
13743;SDS011;6943;52.368;9.966;2023-08-06T04:19:45;15.53;;;12.00;;
13743;SDS011;6943;52.368;9.966;2023-08-06T04:22:15;16.43;;;12.13;;
13743;SDS011;6943;52.368;9.966;2023-08-06T04:24:41;16.70;;;12.20;;
13743;SDS011;6943;52.368;9.966;2023-08-06T04:27:08;17.47;;;12.53;;
13743;SDS011;6943;52.368;9.966;2023-08-06T04:29:34;20.33;;;13.53;;
13743;SDS011;6943;52.368;9.966;2023-08-06T04:31:59;21.37;;;14.60;;
13743;SDS011;6943;52.368;9.966;2023-08-06T04:34:25;25.63;;;13.97;;
13743;SDS011;6943;52.368;9.966;2023-08-06T04:36:50;25.27;;;14.03;;
13743;SDS011;6943;52.368;9.966;2023-08-06T04:39:16;22.23;;;14.07;;
13743;SDS011;6943;52.368;9.966;2023-08-06T04:41:41;18.57;;;12.93;;
13743;SDS011;6943;52.368;9.966;2023-08-06T04:44:07;23.43;;;12.90;;
13743;SDS011;6943;52.368;9.966;2023-08-06T04:46:32;37.80;;;13.80;;
13743;SDS011;6943;52.368;9.966;2023-08-06T04:48:58;69.70;;;15.07;;
13743;SDS011;6943;52.368;9.966;2023-08-06T04:51:23;36.00;;;13.67;;
13743;SDS011;6943;52.368;9.966;2023-08-06T04:53:49;23.70;;;14.30;;
13743;SDS011;6943;52.368;9.966;2023-08-06T04:56:14;25.10;;;14.97;;
13743;SDS011;6943;52.368;9.966;2023-08-06T04:58:40;22.77;;;13.80;;
13743;SDS011;6943;52.368;9.966;2023-08-06T05:01:05;23.23;;;14.70;;
13743;SDS011;6943;52.368;9.966;2023-08-06T05:03:31;18.40;;;13.57;;
13743;SDS011;6943;52.368;9.966;2023-08-06T05:05:57;20.13;;;15.20;;
13743;SDS011;6943;52.368;9.966;2023-08-06T05:08:22;23.53;;;15.67;;
13743;SDS011;6943;52.368;9.966;2023-08-06T05:10:48;23.97;;;14.17;;
13743;SDS011;6943;52.368;9.966;2023-08-06T05:13:13;20.03;;;14.13;;
13743;SDS011;6943;52.368;9.966;2023-08-06T05:15:39;19.43;;;13.70;;
13743;SDS011;6943;52.368;9.966;2023-08-06T05:18:07;16.50;;;13.13;;
13743;SDS011;6943;52.368;9.966;2023-08-06T05:20:35;16.83;;;12.60;;
13743;SDS011;6943;52.368;9.966;2023-08-06T05:23:02;16.13;;;12.37;;
13743;SDS011;6943;52.368;9.966;2023-08-06T05:25:27;15.17;;;11.87;;
13743;SDS011;6943;52.368;9.966;2023-08-06T05:27:53;14.67;;;12.40;;
13743;SDS011;6943;52.368;9.966;2023-08-06T05:30:18;15.07;;;11.53;;
13743;SDS011;6943;52.368;9.966;2023-08-06T05:32:44;12.20;;;10.60;;
13743;SDS011;6943;52.368;9.966;2023-08-06T05:35:09;12.37;;;10.13;;
13743;SDS011;6943;52.368;9.966;2023-08-06T05:37:35;10.20;;;9.20;;
13743;SDS011;6943;52.368;9.966;2023-08-06T05:40:00;9.47;;;8.53;;
13743;SDS011;6943;52.368;9.966;2023-08-06T05:42:27;10.03;;;8.40;;
13743;SDS011;6943;52.368;9.966;2023-08-06T05:44:52;8.63;;;7.83;;
13743;SDS011;6943;52.368;9.966;2023-08-06T05:47:18;10.10;;;8.57;;
13743;SDS011;6943;52.368;9.966;2023-08-06T05:49:44;9.00;;;8.03;;
13743;SDS011;6943;52.368;9.966;2023-08-06T05:52:10;9.17;;;8.37;;
13743;SDS011;6943;52.368;9.966;2023-08-06T05:54:36;9.73;;;8.47;;
13743;SDS011;6943;52.368;9.966;2023-08-06T05:57:04;10.67;;;8.40;;
13743;SDS011;6943;52.368;9.966;2023-08-06T05:59:30;9.87;;;8.23;;
13743;SDS011;6943;52.368;9.966;2023-08-06T06:01:56;12.93;;;8.57;;
13743;SDS011;6943;52.368;9.966;2023-08-06T06:04:21;8.93;;;7.83;;
13743;SDS011;6943;52.368;9.966;2023-08-06T06:06:47;9.57;;;8.57;;
13743;SDS011;6943;52.368;9.966;2023-08-06T06:09:12;9.17;;;8.17;;
13743;SDS011;6943;52.368;9.966;2023-08-06T06:11:38;8.33;;;7.53;;
13743;SDS011;6943;52.368;9.966;2023-08-06T06:14:04;9.27;;;7.77;;
13743;SDS011;6943;52.368;9.966;2023-08-06T06:16:29;7.60;;;6.67;;
13743;SDS011;6943;52.368;9.966;2023-08-06T06:18:55;8.00;;;7.10;;
13743;SDS011;6943;52.368;9.966;2023-08-06T06:21:22;7.30;;;6.60;;
13743;SDS011;6943;52.368;9.966;2023-08-06T06:23:48;6.23;;;5.63;;
13743;SDS011;6943;52.368;9.966;2023-08-06T06:26:14;6.87;;;5.80;;
13743;SDS011;6943;52.368;9.966;2023-08-06T06:28:39;5.83;;;5.33;;
13743;SDS011;6943;52.368;9.966;2023-08-06T06:31:05;6.40;;;4.47;;
13743;SDS011;6943;52.368;9.966;2023-08-06T06:33:30;6.87;;;4.67;;
13743;SDS011;6943;52.368;9.966;2023-08-06T06:35:56;6.27;;;4.60;;
13743;SDS011;6943;52.368;9.966;2023-08-06T06:38:21;6.60;;;4.60;;
13743;SDS011;6943;52.368;9.966;2023-08-06T06:40:54;4.10;;;3.70;;
13743;SDS011;6943;52.368;9.966;2023-08-06T06:43:20;4.28;;;3.88;;
13743;SDS011;6943;52.368;9.966;2023-08-06T06:45:45;4.32;;;3.92;;
13743;SDS011;6943;52.368;9.966;2023-08-06T06:48:11;4.85;;;3.78;;
13743;SDS011;6943;52.368;9.966;2023-08-06T06:50:36;5.07;;;3.78;;
13743;SDS011;6943;52.368;9.966;2023-08-06T06:53:04;3.30;;;2.97;;
13743;SDS011;6943;52.368;9.966;2023-08-06T06:55:29;7.20;;;3.90;;
13743;SDS011;6943;52.368;9.966;2023-08-06T06:57:55;3.58;;;3.28;;
13743;SDS011;6943;52.368;9.966;2023-08-06T07:00:20;3.15;;;2.85;;
13743;SDS011;6943;52.368;9.966;2023-08-06T07:02:46;4.95;;;3.40;;
13743;SDS011;6943;52.368;9.966;2023-08-06T07:05:12;3.58;;;3.15;;
13743;SDS011;6943;52.368;9.966;2023-08-06T07:07:37;4.50;;;3.20;;
13743;SDS011;6943;52.368;9.966;2023-08-06T07:10:04;5.45;;;3.28;;
13743;SDS011;6943;52.368;9.966;2023-08-06T07:12:30;6.30;;;3.53;;
13743;SDS011;6943;52.368;9.966;2023-08-06T07:14:56;2.63;;;2.42;;
13743;SDS011;6943;52.368;9.966;2023-08-06T07:17:21;3.47;;;2.60;;
13743;SDS011;6943;52.368;9.966;2023-08-06T07:19:47;2.60;;;2.40;;
13743;SDS011;6943;52.368;9.966;2023-08-06T07:22:12;4.07;;;2.50;;
13743;SDS011;6943;52.368;9.966;2023-08-06T07:24:38;2.60;;;2.40;;
13743;SDS011;6943;52.368;9.966;2023-08-06T07:27:03;4.35;;;2.22;;
13743;SDS011;6943;52.368;9.966;2023-08-06T07:29:29;3.70;;;2.40;;
13743;SDS011;6943;52.368;9.966;2023-08-06T07:31:55;3.03;;;2.10;;
13743;SDS011;6943;52.368;9.966;2023-08-06T07:34:20;4.30;;;2.30;;
13743;SDS011;6943;52.368;9.966;2023-08-06T07:36:46;3.08;;;2.10;;
13743;SDS011;6943;52.368;9.966;2023-08-06T07:39:12;2.03;;;1.90;;
13743;SDS011;6943;52.368;9.966;2023-08-06T07:41:37;1.92;;;1.83;;
13743;SDS011;6943;52.368;9.966;2023-08-06T07:44:03;2.30;;;1.75;;
13743;SDS011;6943;52.368;9.966;2023-08-06T07:46:29;1.85;;;1.70;;
13743;SDS011;6943;52.368;9.966;2023-08-06T07:48:54;2.50;;;1.60;;
13743;SDS011;6943;52.368;9.966;2023-08-06T07:51:20;2.17;;;1.85;;
13743;SDS011;6943;52.368;9.966;2023-08-06T07:53:45;1.92;;;1.60;;
13743;SDS011;6943;52.368;9.966;2023-08-06T07:56:11;1.95;;;1.30;;
13743;SDS011;6943;52.368;9.966;2023-08-06T07:58:36;1.80;;;1.70;;
13743;SDS011;6943;52.368;9.966;2023-08-06T08:01:02;2.40;;;1.33;;
13743;SDS011;6943;52.368;9.966;2023-08-06T08:03:27;1.60;;;1.40;;
13743;SDS011;6943;52.368;9.966;2023-08-06T08:05:54;3.85;;;1.35;;
13743;SDS011;6943;52.368;9.966;2023-08-06T08:08:24;1.58;;;1.30;;
13743;SDS011;6943;52.368;9.966;2023-08-06T08:10:49;2.15;;;1.20;;
13743;SDS011;6943;52.368;9.966;2023-08-06T08:13:15;2.67;;;1.38;;
13743;SDS011;6943;52.368;9.966;2023-08-06T08:15:40;2.90;;;1.45;;
13743;SDS011;6943;52.368;9.966;2023-08-06T08:18:06;2.45;;;1.58;;
13743;SDS011;6943;52.368;9.966;2023-08-06T08:20:32;1.63;;;1.40;;
13743;SDS011;6943;52.368;9.966;2023-08-06T08:23:00;1.92;;;1.30;;
13743;SDS011;6943;52.368;9.966;2023-08-06T08:25:25;2.83;;;1.30;;
13743;SDS011;6943;52.368;9.966;2023-08-06T08:27:52;2.60;;;1.20;;
13743;SDS011;6943;52.368;9.966;2023-08-06T08:30:18;1.85;;;1.40;;
13743;SDS011;6943;52.368;9.966;2023-08-06T08:32:43;1.75;;;1.60;;
13743;SDS011;6943;52.368;9.966;2023-08-06T08:35:09;2.28;;;1.60;;
13743;SDS011;6943;52.368;9.966;2023-08-06T08:37:37;3.20;;;1.55;;
13743;SDS011;6943;52.368;9.966;2023-08-06T08:40:03;1.50;;;1.30;;
13743;SDS011;6943;52.368;9.966;2023-08-06T08:42:29;1.23;;;1.13;;
13743;SDS011;6943;52.368;9.966;2023-08-06T08:44:54;1.25;;;1.15;;
13743;SDS011;6943;52.368;9.966;2023-08-06T08:47:21;1.38;;;1.27;;
13743;SDS011;6943;52.368;9.966;2023-08-06T08:49:48;1.40;;;1.23;;
13743;SDS011;6943;52.368;9.966;2023-08-06T08:52:16;3.40;;;1.50;;
13743;SDS011;6943;52.368;9.966;2023-08-06T08:54:43;2.10;;;1.40;;
13743;SDS011;6943;52.368;9.966;2023-08-06T08:57:09;4.38;;;1.38;;
13743;SDS011;6943;52.368;9.966;2023-08-06T08:59:35;1.40;;;1.30;;
13743;SDS011;6943;52.368;9.966;2023-08-06T09:02:01;1.63;;;1.42;;
13743;SDS011;6943;52.368;9.966;2023-08-06T09:04:28;1.50;;;1.40;;
13743;SDS011;6943;52.368;9.966;2023-08-06T09:07:12;1.45;;;1.30;;
13743;SDS011;6943;52.368;9.966;2023-08-06T09:09:42;3.55;;;1.50;;
13743;SDS011;6943;52.368;9.966;2023-08-06T09:12:16;2.72;;;1.40;;
13743;SDS011;6943;52.368;9.966;2023-08-06T09:14:42;1.50;;;1.40;;
13743;SDS011;6943;52.368;9.966;2023-08-06T09:17:09;1.92;;;1.35;;
13743;SDS011;6943;52.368;9.966;2023-08-06T09:19:41;1.70;;;1.50;;
13743;SDS011;6943;52.368;9.966;2023-08-06T09:22:11;1.95;;;1.45;;
13743;SDS011;6943;52.368;9.966;2023-08-06T09:24:41;2.22;;;1.52;;
13743;SDS011;6943;52.368;9.966;2023-08-06T09:27:14;1.40;;;1.30;;
13743;SDS011;6943;52.368;9.966;2023-08-06T09:29:43;2.08;;;1.90;;
13743;SDS011;6943;52.368;9.966;2023-08-06T09:32:11;2.42;;;1.75;;
13743;SDS011;6943;52.368;9.966;2023-08-06T09:34:41;2.55;;;1.60;;
13743;SDS011;6943;52.368;9.966;2023-08-06T09:37:10;1.73;;;1.17;;
13743;SDS011;6943;52.368;9.966;2023-08-06T09:39:37;2.00;;;1.90;;
13743;SDS011;6943;52.368;9.966;2023-08-06T09:42:04;1.75;;;1.65;;
13743;SDS011;6943;52.368;9.966;2023-08-06T09:44:31;1.73;;;1.50;;
13743;SDS011;6943;52.368;9.966;2023-08-06T09:46:58;1.88;;;1.67;;
13743;SDS011;6943;52.368;9.966;2023-08-06T09:49:28;3.88;;;2.05;;
13743;SDS011;6943;52.368;9.966;2023-08-06T09:52:10;1.92;;;1.75;;
13743;SDS011;6943;52.368;9.966;2023-08-06T09:54:40;2.15;;;1.60;;
13743;SDS011;6943;52.368;9.966;2023-08-06T09:57:08;1.80;;;1.65;;
13743;SDS011;6943;52.368;9.966;2023-08-06T09:59:36;2.05;;;1.90;;
13743;SDS011;6943;52.368;9.966;2023-08-06T10:02:04;2.28;;;1.70;;
13743;SDS011;6943;52.368;9.966;2023-08-06T10:04:37;3.13;;;1.83;;
13743;SDS011;6943;52.368;9.966;2023-08-06T10:07:03;2.47;;;1.52;;
13743;SDS011;6943;52.368;9.966;2023-08-06T10:09:29;1.70;;;1.60;;
13743;SDS011;6943;52.368;9.966;2023-08-06T10:11:54;2.10;;;1.90;;
13743;SDS011;6943;52.368;9.966;2023-08-06T10:16:57;2.40;;;1.52;;
13743;SDS011;6943;52.368;9.966;2023-08-06T10:19:23;2.20;;;2.00;;
13743;SDS011;6943;52.368;9.966;2023-08-06T10:22:07;2.35;;;1.92;;
13743;SDS011;6943;52.368;9.966;2023-08-06T10:24:45;1.88;;;1.77;;
13743;SDS011;6943;52.368;9.966;2023-08-06T10:27:30;2.25;;;2.05;;
13743;SDS011;6943;52.368;9.966;2023-08-06T10:30:47;3.33;;;2.15;;
13743;SDS011;6943;52.368;9.966;2023-08-06T10:33:00;2.63;;;2.20;;
13743;SDS011;6943;52.368;9.966;2023-08-06T10:35:37;2.83;;;1.90;;
13743;SDS011;6943;52.368;9.966;2023-08-06T10:38:05;2.63;;;1.88;;
13743;SDS011;6943;52.368;9.966;2023-08-06T10:40:34;1.83;;;1.70;;
13743;SDS011;6943;52.368;9.966;2023-08-06T10:43:03;2.50;;;1.77;;
13743;SDS011;6943;52.368;9.966;2023-08-06T10:45:33;2.92;;;1.83;;
13743;SDS011;6943;52.368;9.966;2023-08-06T10:47:59;2.53;;;2.10;;
13743;SDS011;6943;52.368;9.966;2023-08-06T10:50:25;2.50;;;2.00;;
13743;SDS011;6943;52.368;9.966;2023-08-06T10:52:51;3.55;;;1.92;;
13743;SDS011;6943;52.368;9.966;2023-08-06T10:55:24;3.08;;;2.35;;
13743;SDS011;6943;52.368;9.966;2023-08-06T10:57:54;2.85;;;1.90;;
13743;SDS011;6943;52.368;9.966;2023-08-06T11:00:21;2.42;;;2.20;;
13743;SDS011;6943;52.368;9.966;2023-08-06T11:02:51;2.63;;;1.83;;
13743;SDS011;6943;52.368;9.966;2023-08-06T11:05:17;3.75;;;2.20;;
13743;SDS011;6943;52.368;9.966;2023-08-06T11:07:43;2.28;;;2.08;;
13743;SDS011;6943;52.368;9.966;2023-08-06T11:10:09;2.35;;;2.15;;
13743;SDS011;6943;52.368;9.966;2023-08-06T11:12:36;2.75;;;2.17;;
13743;SDS011;6943;52.368;9.966;2023-08-06T11:15:02;2.05;;;1.85;;
13743;SDS011;6943;52.368;9.966;2023-08-06T11:17:29;2.53;;;2.17;;
13743;SDS011;6943;52.368;9.966;2023-08-06T11:20:03;2.50;;;2.30;;
13743;SDS011;6943;52.368;9.966;2023-08-06T11:22:29;4.93;;;2.30;;
13743;SDS011;6943;52.368;9.966;2023-08-06T11:24:55;2.58;;;2.10;;
13743;SDS011;6943;52.368;9.966;2023-08-06T11:27:21;2.80;;;2.47;;
13743;SDS011;6943;52.368;9.966;2023-08-06T11:29:46;3.17;;;2.58;;
13743;SDS011;6943;52.368;9.966;2023-08-06T11:32:12;3.03;;;2.35;;
13743;SDS011;6943;52.368;9.966;2023-08-06T11:34:38;3.13;;;2.22;;
13743;SDS011;6943;52.368;9.966;2023-08-06T11:37:04;2.35;;;2.05;;
13743;SDS011;6943;52.368;9.966;2023-08-06T11:39:37;2.65;;;2.45;;
13743;SDS011;6943;52.368;9.966;2023-08-06T11:42:06;2.90;;;1.75;;
13743;SDS011;6943;52.368;9.966;2023-08-06T11:44:35;2.53;;;2.33;;
13743;SDS011;6943;52.368;9.966;2023-08-06T11:47:02;2.33;;;2.00;;
13743;SDS011;6943;52.368;9.966;2023-08-06T11:49:42;2.20;;;2.03;;
13743;SDS011;6943;52.368;9.966;2023-08-06T11:52:21;3.10;;;2.13;;
13743;SDS011;6943;52.368;9.966;2023-08-06T11:57:36;2.55;;;2.33;;
13743;SDS011;6943;52.368;9.966;2023-08-06T12:00:05;2.70;;;2.50;;
13743;SDS011;6943;52.368;9.966;2023-08-06T12:02:35;3.75;;;2.42;;
13743;SDS011;6943;52.368;9.966;2023-08-06T12:05:13;2.75;;;2.55;;
13743;SDS011;6943;52.368;9.966;2023-08-06T12:07:40;5.40;;;2.47;;
13743;SDS011;6943;52.368;9.966;2023-08-06T12:10:11;2.58;;;2.00;;
13743;SDS011;6943;52.368;9.966;2023-08-06T12:12:38;3.67;;;2.78;;
13743;SDS011;6943;52.368;9.966;2023-08-06T12:15:04;2.95;;;2.55;;
13743;SDS011;6943;52.368;9.966;2023-08-06T12:17:33;2.72;;;2.47;;
13743;SDS011;6943;52.368;9.966;2023-08-06T12:20:00;3.47;;;2.33;;
13743;SDS011;6943;52.368;9.966;2023-08-06T12:22:26;2.60;;;2.22;;
13743;SDS011;6943;52.368;9.966;2023-08-06T12:24:52;2.55;;;2.35;;
13743;SDS011;6943;52.368;9.966;2023-08-06T12:27:17;4.20;;;2.53;;
13743;SDS011;6943;52.368;9.966;2023-08-06T12:29:52;2.63;;;2.42;;
13743;SDS011;6943;52.368;9.966;2023-08-06T12:32:17;3.40;;;2.50;;
13743;SDS011;6943;52.368;9.966;2023-08-06T12:34:44;3.47;;;2.53;;
13743;SDS011;6943;52.368;9.966;2023-08-06T12:37:09;2.35;;;2.15;;
13743;SDS011;6943;52.368;9.966;2023-08-06T12:39:35;2.78;;;2.50;;
13743;SDS011;6943;52.368;9.966;2023-08-06T12:42:02;4.15;;;2.08;;
13743;SDS011;6943;52.368;9.966;2023-08-06T12:44:28;3.03;;;2.25;;
13743;SDS011;6943;52.368;9.966;2023-08-06T12:46:54;2.92;;;2.40;;
13743;SDS011;6943;52.368;9.966;2023-08-06T12:49:20;2.92;;;2.10;;
13743;SDS011;6943;52.368;9.966;2023-08-06T12:51:46;2.38;;;2.17;;
13743;SDS011;6943;52.368;9.966;2023-08-06T12:54:13;2.35;;;1.98;;
13743;SDS011;6943;52.368;9.966;2023-08-06T12:56:38;3.15;;;1.70;;
13743;SDS011;6943;52.368;9.966;2023-08-06T12:59:04;3.28;;;2.38;;
13743;SDS011;6943;52.368;9.966;2023-08-06T13:01:29;2.95;;;2.30;;
13743;SDS011;6943;52.368;9.966;2023-08-06T13:03:55;2.40;;;2.20;;
13743;SDS011;6943;52.368;9.966;2023-08-06T13:06:20;2.40;;;2.20;;
13743;SDS011;6943;52.368;9.966;2023-08-06T13:08:46;2.58;;;2.35;;
13743;SDS011;6943;52.368;9.966;2023-08-06T13:11:11;2.97;;;2.30;;
13743;SDS011;6943;52.368;9.966;2023-08-06T13:13:37;2.40;;;2.20;;
13743;SDS011;6943;52.368;9.966;2023-08-06T13:16:03;4.10;;;2.40;;
13743;SDS011;6943;52.368;9.966;2023-08-06T13:18:28;3.05;;;2.75;;
13743;SDS011;6943;52.368;9.966;2023-08-06T13:20:54;1.98;;;1.77;;
13743;SDS011;6943;52.368;9.966;2023-08-06T13:23:20;2.17;;;1.98;;
13743;SDS011;6943;52.368;9.966;2023-08-06T13:25:46;2.55;;;2.25;;
13743;SDS011;6943;52.368;9.966;2023-08-06T13:28:11;2.40;;;2.05;;
13743;SDS011;6943;52.368;9.966;2023-08-06T13:30:38;2.38;;;2.17;;
13743;SDS011;6943;52.368;9.966;2023-08-06T13:33:07;1.52;;;1.42;;
13743;SDS011;6943;52.368;9.966;2023-08-06T13:35:36;2.20;;;2.00;;
13743;SDS011;6943;52.368;9.966;2023-08-06T13:38:02;2.17;;;1.98;;
13743;SDS011;6943;52.368;9.966;2023-08-06T13:40:28;2.40;;;2.20;;
13743;SDS011;6943;52.368;9.966;2023-08-06T13:42:55;2.20;;;2.00;;
13743;SDS011;6943;52.368;9.966;2023-08-06T13:45:20;2.13;;;1.98;;
13743;SDS011;6943;52.368;9.966;2023-08-06T13:47:46;2.28;;;2.00;;
13743;SDS011;6943;52.368;9.966;2023-08-06T13:50:12;2.40;;;2.20;;
13743;SDS011;6943;52.368;9.966;2023-08-06T13:52:38;2.97;;;2.45;;
13743;SDS011;6943;52.368;9.966;2023-08-06T13:55:04;2.22;;;2.03;;
13743;SDS011;6943;52.368;9.966;2023-08-06T13:57:30;2.45;;;2.25;;
13743;SDS011;6943;52.368;9.966;2023-08-06T13:59:56;2.30;;;2.15;;
13743;SDS011;6943;52.368;9.966;2023-08-06T14:02:22;2.10;;;2.00;;
13743;SDS011;6943;52.368;9.966;2023-08-06T14:04:48;2.85;;;2.33;;
13743;SDS011;6943;52.368;9.966;2023-08-06T14:07:13;2.25;;;2.05;;
13743;SDS011;6943;52.368;9.966;2023-08-06T14:09:39;2.20;;;2.08;;
13743;SDS011;6943;52.368;9.966;2023-08-06T14:12:05;2.22;;;2.03;;
13743;SDS011;6943;52.368;9.966;2023-08-06T14:14:31;2.10;;;1.90;;
13743;SDS011;6943;52.368;9.966;2023-08-06T14:16:56;2.33;;;2.10;;
13743;SDS011;6943;52.368;9.966;2023-08-06T14:19:22;2.00;;;1.90;;
13743;SDS011;6943;52.368;9.966;2023-08-06T14:21:47;2.22;;;2.03;;
13743;SDS011;6943;52.368;9.966;2023-08-06T14:24:13;2.00;;;1.90;;
13743;SDS011;6943;52.368;9.966;2023-08-06T14:26:38;2.78;;;1.95;;
13743;SDS011;6943;52.368;9.966;2023-08-06T14:29:04;2.20;;;2.00;;
13743;SDS011;6943;52.368;9.966;2023-08-06T14:31:29;2.17;;;1.98;;
13743;SDS011;6943;52.368;9.966;2023-08-06T14:33:55;1.77;;;1.67;;
13743;SDS011;6943;52.368;9.966;2023-08-06T14:36:21;2.25;;;2.05;;
13743;SDS011;6943;52.368;9.966;2023-08-06T14:38:46;1.98;;;1.88;;
13743;SDS011;6943;52.368;9.966;2023-08-06T14:41:12;3.00;;;2.10;;
13743;SDS011;6943;52.368;9.966;2023-08-06T14:43:38;1.83;;;1.73;;
13743;SDS011;6943;52.368;9.966;2023-08-06T14:46:03;2.65;;;2.03;;
13743;SDS011;6943;52.368;9.966;2023-08-06T14:48:29;1.88;;;1.77;;
13743;SDS011;6943;52.368;9.966;2023-08-06T14:50:55;2.15;;;1.70;;
13743;SDS011;6943;52.368;9.966;2023-08-06T14:53:21;1.63;;;1.50;;
13743;SDS011;6943;52.368;9.966;2023-08-06T14:55:47;1.92;;;1.65;;
13743;SDS011;6943;52.368;9.966;2023-08-06T14:58:13;2.35;;;1.70;;
13743;SDS011;6943;52.368;9.966;2023-08-06T15:00:38;1.60;;;1.50;;
13743;SDS011;6943;52.368;9.966;2023-08-06T15:03:04;2.80;;;1.70;;
13743;SDS011;6943;52.368;9.966;2023-08-06T15:05:29;4.03;;;1.98;;